Bonaria — ICUS — position and weather

sailwx.info

Track history (hours):
 
Tides and Currents Weather Stations Pressure Air Temp Water Temp Dewpoint Dewpoint Depression Visibility Wind Speed Wind Dir Waves Ship Positions

Bonaria

Last reported at 2017-Apr-29 17:29 UTC. Time now 2017-Apr-29 17:31 UTC.
Position N 38°08' E 013°22'.

Length 214 m; draft 7 m.

Type: Ship (hazmat cat A). MMSI: 247322400.

Date/timePositionNaut miles runAvg speedWind from/ knotsBaromVisibWave heightAir tempDewpointWater temp
2017-Apr-29 17:29N 38°08' E 013°22'0 0.0
2017-Apr-29 16:59N 38°08' E 013°22'0 0.0
2017-Apr-29 16:29N 38°08' E 013°22'0 0.0
2017-Apr-29 15:59N 38°08' E 013°22'0 0.0
2017-Apr-29 15:29N 38°08' E 013°22'0 0.0
2017-Apr-29 14:59N 38°08' E 013°22'0 0.0
2017-Apr-29 13:59N 38°08' E 013°22'0 0.0
2017-Apr-29 13:26N 38°08' E 013°22'0 0.0
2017-Apr-29 12:59N 38°08' E 013°22'0 0.0
2017-Apr-29 12:29N 38°08' E 013°22'0 0.0
2017-Apr-29 11:59N 38°08' E 013°22'0 0.0
2017-Apr-29 11:29N 38°08' E 013°22'0 0.0
2017-Apr-29 10:59N 38°08' E 013°22'0 0.0
2017-Apr-29 10:29N 38°08' E 013°22'0 0.0
2017-Apr-29 09:59N 38°08' E 013°22'0 0.0
2017-Apr-29 09:26N 38°08' E 013°22'0 0.0
2017-Apr-29 08:59N 38°08' E 013°22'0 0.0
2017-Apr-29 08:29N 38°08' E 013°22'0 0.0
2017-Apr-29 07:53N 38°08' E 013°22'0 0.0
2017-Apr-29 07:29N 38°08' E 013°22'0 0.0
2017-Apr-29 06:59N 38°08' E 013°22'0 0.0
2017-Apr-29 06:29N 38°08' E 013°22'0 0.0
2017-Apr-29 05:59N 38°08' E 013°22'0 0.0
2017-Apr-29 05:30N 38°08' E 013°22'2 4.4
2017-Apr-29 05:01N 38°09' E 013°24'917.3
2017-Apr-29 04:30N 38°17' E 013°20'1019.9
2017-Apr-29 04:00N 38°19' E 013°08'1019.8
2017-Apr-29 03:30N 38°22' E 012°56'1019.8
2017-Apr-29 03:00N 38°24' E 012°43'14919.6
2017-Apr-28 19:26N 38°57' E 009°38'1421.0
2017-Apr-28 18:47N 39°03' E 009°22'621.3
2017-Apr-28 18:30N 39°06' E 009°16'917.8
2017-Apr-28 18:00N 39°11' E 009°06'1 2.4
2017-Apr-28 17:29N 39°13' E 009°06'0 0.0
2017-Apr-28 16:59N 39°13' E 009°06'0 0.0
2017-Apr-28 16:29N 39°13' E 009°06'0 0.0
2017-Apr-28 15:59N 39°13' E 009°06'0 0.0
2017-Apr-28 15:29N 39°13' E 009°06'0 0.0
2017-Apr-28 14:59N 39°13' E 009°06'0 0.0
2017-Apr-28 13:59N 39°13' E 009°06'0 0.0
2017-Apr-28 13:29N 39°13' E 009°06'0 0.0
2017-Apr-28 12:59N 39°13' E 009°06'0 0.0
2017-Apr-28 12:29N 39°13' E 009°06'0 0.0
2017-Apr-28 11:59N 39°13' E 009°06'0 0.0
2017-Apr-28 11:29N 39°13' E 009°06'0 0.0
2017-Apr-28 10:59N 39°13' E 009°06'0 0.0
2017-Apr-28 10:29N 39°13' E 009°06'0 0.0
2017-Apr-28 09:59N 39°13' E 009°06'0 0.0
2017-Apr-28 09:29N 39°13' E 009°06'0 0.0
2017-Apr-28 08:59N 39°13' E 009°06'0 0.0
2017-Apr-28 08:29N 39°13' E 009°06'0 0.0
2017-Apr-28 07:59N 39°13' E 009°06'0 0.0
2017-Apr-28 07:29N 39°13' E 009°06'0 0.0
2017-Apr-28 06:59N 39°13' E 009°06'0 0.0
2017-Apr-28 06:29N 39°13' E 009°06'1 3.0
2017-Apr-28 06:00N 39°11' E 009°07'918.1
2017-Apr-28 05:30N 39°06' E 009°16'1020.7
2017-Apr-28 05:00N 39°00' E 009°28'47 1.4
2017-Apr-26 20:33N 39°18' E 010°23'120.7
2017-Apr-26 20:30N 39°18' E 010°22'1221.1
2017-Apr-26 19:56N 39°13' E 010°08'921.3
2017-Apr-26 19:30N 39°08' E 009°58'1121.6
2017-Apr-26 19:00N 39°04' E 009°45'1121.3
2017-Apr-26 18:28N 38°58' E 009°33'1121.8
2017-Apr-26 17:59N 39°04' E 009°20'1021.7
2017-Apr-26 17:30N 39°09' E 009°09'4 8.0
2017-Apr-26 17:00N 39°13' E 009°06'0 0.0
2017-Apr-26 16:30N 39°13' E 009°06'0 0.0
2017-Apr-26 16:00N 39°13' E 009°06'0 0.0
2017-Apr-26 15:30N 39°13' E 009°06'0 0.0
2017-Apr-26 15:00N 39°13' E 009°06'0 0.0
2017-Apr-26 14:00N 39°13' E 009°06'0 0.0
2017-Apr-26 13:30N 39°13' E 009°06'0 0.0
2017-Apr-26 13:00N 39°13' E 009°06'0 0.0
2017-Apr-26 12:30N 39°13' E 009°06'0 0.0
2017-Apr-26 12:00N 39°13' E 009°06'0 0.0
2017-Apr-26 11:27N 39°13' E 009°06'0 0.0
2017-Apr-26 11:00N 39°13' E 009°06'0 0.0
2017-Apr-26 10:30N 39°13' E 009°06'0 0.0
2017-Apr-26 10:00N 39°13' E 009°06'0 0.0
2017-Apr-26 09:30N 39°13' E 009°06'0 0.0
2017-Apr-26 09:00N 39°13' E 009°06'0 0.0
2017-Apr-26 08:30N 39°13' E 009°06'0 0.0
2017-Apr-26 08:00N 39°13' E 009°06'0 0.0
2017-Apr-26 07:30N 39°13' E 009°06'0 0.0
2017-Apr-26 07:00N 39°13' E 009°06'0 0.0
2017-Apr-26 06:30N 39°13' E 009°06'2 3.1
2017-Apr-26 06:00N 39°11' E 009°07'1019.0
2017-Apr-26 05:30N 39°06' E 009°17'1121.4
2017-Apr-26 04:59N 38°60' E 009°29'1519.8
2017-Apr-26 04:14N 39°04' E 009°47'18421.3
2017-Apr-25 19:37N 40°24' E 013°22'421.8
2017-Apr-25 19:26N 40°25' E 013°27'921.8
2017-Apr-25 19:00N 40°29' E 013°38'1121.8
2017-Apr-25 18:30N 40°34' E 013°51'2121.6
2017-Apr-25 17:31N 40°45' E 014°15'021.3
2017-Apr-25 17:30N 40°46' E 014°15'146 7.8
2017-Apr-24 22:50N 39°41' E 011°24'921.5
2017-Apr-24 22:26N 39°37' E 011°14'7621.6
2017-Apr-24 18:56N 39°04' E 009°46'1121.8
2017-Apr-24 18:27N 38°59' E 009°34'1021.0
2017-Apr-24 17:59N 39°03' E 009°22'1122.0
2017-Apr-24 17:29N 39°08' E 009°11'510.9
2017-Apr-24 17:00N 39°13' E 009°06'0 0.0
2017-Apr-24 16:29N 39°13' E 009°06'0 0.0
2017-Apr-24 15:59N 39°13' E 009°06'0 0.0
2017-Apr-24 15:29N 39°13' E 009°06'0 0.0
2017-Apr-24 14:59N 39°13' E 009°06'0 0.0
2017-Apr-24 14:29N 39°13' E 009°06'0 0.0
2017-Apr-24 13:29N 39°13' E 009°06'0 0.0
2017-Apr-24 12:59N 39°13' E 009°06'0 0.0
2017-Apr-24 12:29N 39°13' E 009°06'0 0.0
2017-Apr-24 11:59N 39°13' E 009°06'0 0.0
2017-Apr-24 11:29N 39°13' E 009°06'0 0.0
2017-Apr-24 10:59N 39°13' E 009°06'0 0.0
2017-Apr-24 10:29N 39°13' E 009°06'0 0.0
2017-Apr-24 09:59N 39°13' E 009°06'0 0.0
2017-Apr-24 09:29N 39°13' E 009°06'0 0.0
2017-Apr-24 08:59N 39°13' E 009°06'0 0.0
2017-Apr-24 08:29N 39°13' E 009°06'0 0.0
2017-Apr-24 07:59N 39°13' E 009°06'0 0.0
2017-Apr-24 07:29N 39°13' E 009°06'0 0.0
2017-Apr-24 06:59N 39°13' E 009°06'0 0.0
2017-Apr-24 06:29N 39°13' E 009°06'0 0.0
2017-Apr-24 05:59N 39°13' E 009°06'0 0.0
2017-Apr-24 05:29N 39°13' E 009°06'0 0.0
2017-Apr-24 04:59N 39°13' E 009°06'0 0.0
2017-Apr-24 04:29N 39°13' E 009°06'0 0.0
2017-Apr-24 03:59N 39°13' E 009°06'0 0.0
2017-Apr-24 03:29N 39°13' E 009°06'0 0.0
2017-Apr-24 02:59N 39°13' E 009°06'0 0.0
2017-Apr-24 02:29N 39°13' E 009°06'0 0.0
2017-Apr-24 01:59N 39°13' E 009°06'0 0.0
2017-Apr-24 01:29N 39°13' E 009°06'0 0.0
2017-Apr-24 00:59N 39°13' E 009°06'0 0.0
2017-Apr-24 00:29N 39°13' E 009°06'0 0.0
2017-Apr-23 23:59N 39°13' E 009°06'0 0.0
2017-Apr-23 23:29N 39°13' E 009°06'0 0.0
2017-Apr-23 22:59N 39°13' E 009°06'0 0.0
2017-Apr-23 22:29N 39°13' E 009°06'0 0.0
2017-Apr-23 21:59N 39°13' E 009°06'0 0.0
2017-Apr-23 21:29N 39°13' E 009°06'0 0.0
2017-Apr-23 20:59N 39°13' E 009°06'0 0.0
2017-Apr-23 20:29N 39°13' E 009°06'0 0.0
2017-Apr-23 19:59N 39°13' E 009°06'0 0.0
2017-Apr-23 19:29N 39°13' E 009°06'0 0.0
2017-Apr-23 18:59N 39°13' E 009°06'0 0.0
2017-Apr-23 18:29N 39°13' E 009°06'0 0.0
2017-Apr-23 17:59N 39°13' E 009°06'0 0.0
2017-Apr-23 17:29N 39°13' E 009°06'0 0.0
2017-Apr-23 16:59N 39°13' E 009°06'0 0.0
2017-Apr-23 16:29N 39°13' E 009°06'0 0.0
2017-Apr-23 15:59N 39°13' E 009°06'0 0.0
2017-Apr-23 15:29N 39°13' E 009°06'0 0.0
2017-Apr-23 14:59N 39°13' E 009°06'0 0.0
2017-Apr-23 13:59N 39°13' E 009°06'0 0.0
2017-Apr-23 13:29N 39°13' E 009°06'0 0.0
2017-Apr-23 12:59N 39°13' E 009°06'0 0.0
2017-Apr-23 12:29N 39°13' E 009°06'0 0.0
2017-Apr-23 11:59N 39°13' E 009°06'0 0.0
2017-Apr-23 11:29N 39°13' E 009°06'0 0.0
2017-Apr-23 10:59N 39°13' E 009°06'0 0.0
2017-Apr-23 10:26N 39°13' E 009°06'0 0.0
2017-Apr-23 09:59N 39°13' E 009°06'0 0.0
2017-Apr-23 09:29N 39°13' E 009°06'0 0.0
2017-Apr-23 08:59N 39°13' E 009°06'0 0.0
2017-Apr-23 08:29N 39°13' E 009°06'0 0.0
2017-Apr-23 07:59N 39°13' E 009°06'0 0.0
2017-Apr-23 07:29N 39°13' E 009°06'0 0.0
2017-Apr-23 06:59N 39°13' E 009°06'0 0.0
2017-Apr-23 06:29N 39°13' E 009°06'0 0.0
2017-Apr-23 05:59N 39°13' E 009°06'0 0.0
2017-Apr-23 05:29N 39°13' E 009°06'4 7.7
2017-Apr-23 05:00N 39°09' E 009°09'1019.0
2017-Apr-23 04:30N 39°04' E 009°19'918.8
2017-Apr-23 04:00N 38°59' E 009°30'1019.0
2017-Apr-23 03:29N 38°57' E 009°42'14519.5
2017-Apr-22 20:03N 38°24' E 012°42'119.6
2017-Apr-22 20:00N 38°24' E 012°44'1019.7
2017-Apr-22 19:30N 38°22' E 012°56'1019.6
2017-Apr-22 19:01N 38°19' E 013°08'1020.2
2017-Apr-22 18:31N 38°17' E 013°20'918.2
2017-Apr-22 18:01N 38°09' E 013°26'3 6.2
2017-Apr-22 17:29N 38°08' E 013°22'0 0.0
2017-Apr-22 16:59N 38°08' E 013°22'0 0.0
2017-Apr-22 16:29N 38°08' E 013°22'0 0.0
2017-Apr-22 15:59N 38°08' E 013°22'0 0.0
2017-Apr-22 15:29N 38°08' E 013°22'0 0.0
2017-Apr-22 14:59N 38°08' E 013°22'0 0.0
2017-Apr-22 13:59N 38°08' E 013°22'0 0.0
2017-Apr-22 13:29N 38°08' E 013°22'0 0.0
2017-Apr-22 12:59N 38°08' E 013°22'0 0.0
2017-Apr-22 12:29N 38°08' E 013°22'0 0.0
2017-Apr-22 11:59N 38°08' E 013°22'0 0.0
2017-Apr-22 11:29N 38°08' E 013°22'0 0.0
2017-Apr-22 10:59N 38°08' E 013°22'0 0.0
2017-Apr-22 10:29N 38°08' E 013°22'0 0.0
2017-Apr-22 09:59N 38°08' E 013°22'0 0.0
2017-Apr-22 09:29N 38°08' E 013°22'0 0.0
2017-Apr-22 08:59N 38°08' E 013°22'0 0.0
2017-Apr-22 08:29N 38°08' E 013°22'0 0.0
2017-Apr-22 07:59N 38°08' E 013°22'0 0.0
2017-Apr-22 07:29N 38°08' E 013°22'0 0.0
2017-Apr-22 06:59N 38°08' E 013°22'0 0.0
2017-Apr-22 06:29N 38°08' E 013°22'0 0.0
2017-Apr-22 05:59N 38°08' E 013°22'0 0.0
2017-Apr-22 05:30N 38°08' E 013°22'1 2.1
2017-Apr-22 05:00N 38°07' E 013°23'815.7
2017-Apr-22 04:31N 38°15' E 013°23'918.9
2017-Apr-22 04:01N 38°19' E 013°12'1019.4
2017-Apr-22 03:31N 38°21' E 012°60'1019.3
2017-Apr-22 03:00N 38°23' E 012°48'15319.3
2017-Apr-21 19:06N 38°58' E 009°36'220.5
2017-Apr-21 19:00N 38°58' E 009°34'1120.2
2017-Apr-21 18:27N 39°03' E 009°21'920.8
2017-Apr-21 18:00N 39°08' E 009°11'611.2
2017-Apr-21 17:30N 39°13' E 009°06'0 0.0
2017-Apr-21 16:59N 39°13' E 009°06'0 0.0
2017-Apr-21 16:29N 39°13' E 009°06'0 0.0
2017-Apr-21 15:59N 39°13' E 009°06'0 0.0
2017-Apr-21 15:29N 39°13' E 009°06'0 0.0
2017-Apr-21 14:59N 39°13' E 009°06'0 0.0
2017-Apr-21 14:29N 39°13' E 009°06'0 0.0
2017-Apr-21 13:29N 39°13' E 009°06'0 0.0
2017-Apr-21 12:59N 39°13' E 009°06'0 0.0
2017-Apr-21 12:29N 39°13' E 009°06'0 0.0
2017-Apr-21 11:59N 39°13' E 009°06'0 0.0
2017-Apr-21 11:29N 39°13' E 009°06'0 0.0
2017-Apr-21 10:59N 39°13' E 009°06'0 0.0
2017-Apr-21 10:29N 39°13' E 009°06'0 0.0
2017-Apr-21 09:59N 39°13' E 009°06'0 0.0
2017-Apr-21 09:29N 39°13' E 009°06'0 0.0
2017-Apr-21 08:59N 39°13' E 009°06'0 0.0
2017-Apr-21 08:29N 39°13' E 009°06'0 0.0
2017-Apr-21 07:50N 39°13' E 009°06'0 0.0
2017-Apr-21 07:29N 39°13' E 009°06'0 0.0
2017-Apr-21 06:59N 39°13' E 009°06'0 0.0
2017-Apr-21 06:29N 39°13' E 009°06'2 3.2
2017-Apr-21 06:00N 39°11' E 009°07'918.3
2017-Apr-21 05:30N 39°06' E 009°16'1120.7
2017-Apr-21 04:59N 39°00' E 009°28'6 0.2
2017-Apr-19 18:36N 38°59' E 009°36'221.5
2017-Apr-19 18:30N 38°58' E 009°33'1121.6
2017-Apr-19 18:00N 39°03' E 009°21'  
Track history (hours):
 
Tides and Currents Weather Stations Pressure Air Temp Water Temp Dewpoint Dewpoint Depression Visibility Wind Speed Wind Dir Waves Ship Positions

Bonaria

Last reported at 2017-Apr-29 17:29 UTC. Time now 2017-Apr-29 17:31 UTC.
Position N 38°08' E 013°22'.

Length 214 m; draft 7 m.

Type: Ship (hazmat cat A). MMSI: 247322400.

Date/timePositionNaut miles runAvg speedWind from/ knotsBaromVisibWave heightAir tempDewpointWater temp
2017-Apr-29 17:29N 38°08' E 013°22'0 0.0
2017-Apr-29 16:59N 38°08' E 013°22'0 0.0
2017-Apr-29 16:29N 38°08' E 013°22'0 0.0
2017-Apr-29 15:59N 38°08' E 013°22'0 0.0
2017-Apr-29 15:29N 38°08' E 013°22'0 0.0
2017-Apr-29 14:59N 38°08' E 013°22'0 0.0
2017-Apr-29 13:59N 38°08' E 013°22'0 0.0
2017-Apr-29 13:26N 38°08' E 013°22'0 0.0
2017-Apr-29 12:59N 38°08' E 013°22'0 0.0
2017-Apr-29 12:29N 38°08' E 013°22'0 0.0
2017-Apr-29 11:59N 38°08' E 013°22'0 0.0
2017-Apr-29 11:29N 38°08' E 013°22'0 0.0
2017-Apr-29 10:59N 38°08' E 013°22'0 0.0
2017-Apr-29 10:29N 38°08' E 013°22'0 0.0
2017-Apr-29 09:59N 38°08' E 013°22'0 0.0
2017-Apr-29 09:26N 38°08' E 013°22'0 0.0
2017-Apr-29 08:59N 38°08' E 013°22'0 0.0
2017-Apr-29 08:29N 38°08' E 013°22'0 0.0
2017-Apr-29 07:53N 38°08' E 013°22'0 0.0
2017-Apr-29 07:29N 38°08' E 013°22'0 0.0
2017-Apr-29 06:59N 38°08' E 013°22'0 0.0
2017-Apr-29 06:29N 38°08' E 013°22'0 0.0
2017-Apr-29 05:59N 38°08' E 013°22'0 0.0
2017-Apr-29 05:30N 38°08' E 013°22'2 4.4
2017-Apr-29 05:01N 38°09' E 013°24'917.3
2017-Apr-29 04:30N 38°17' E 013°20'1019.9
2017-Apr-29 04:00N 38°19' E 013°08'1019.8
2017-Apr-29 03:30N 38°22' E 012°56'1019.8
2017-Apr-29 03:00N 38°24' E 012°43'14919.6
2017-Apr-28 19:26N 38°57' E 009°38'1421.0
2017-Apr-28 18:47N 39°03' E 009°22'621.3
2017-Apr-28 18:30N 39°06' E 009°16'917.8
2017-Apr-28 18:00N 39°11' E 009°06'1 2.4
2017-Apr-28 17:29N 39°13' E 009°06'0 0.0
2017-Apr-28 16:59N 39°13' E 009°06'0 0.0
2017-Apr-28 16:29N 39°13' E 009°06'0 0.0
2017-Apr-28 15:59N 39°13' E 009°06'0 0.0
2017-Apr-28 15:29N 39°13' E 009°06'0 0.0
2017-Apr-28 14:59N 39°13' E 009°06'0 0.0
2017-Apr-28 13:59N 39°13' E 009°06'0 0.0
2017-Apr-28 13:29N 39°13' E 009°06'0 0.0
2017-Apr-28 12:59N 39°13' E 009°06'0 0.0
2017-Apr-28 12:29N 39°13' E 009°06'0 0.0
2017-Apr-28 11:59N 39°13' E 009°06'0 0.0
2017-Apr-28 11:29N 39°13' E 009°06'0 0.0
2017-Apr-28 10:59N 39°13' E 009°06'0 0.0
2017-Apr-28 10:29N 39°13' E 009°06'0 0.0
2017-Apr-28 09:59N 39°13' E 009°06'0 0.0
2017-Apr-28 09:29N 39°13' E 009°06'0 0.0
2017-Apr-28 08:59N 39°13' E 009°06'0 0.0
2017-Apr-28 08:29N 39°13' E 009°06'0 0.0
2017-Apr-28 07:59N 39°13' E 009°06'0 0.0
2017-Apr-28 07:29N 39°13' E 009°06'0 0.0
2017-Apr-28 06:59N 39°13' E 009°06'0 0.0
2017-Apr-28 06:29N 39°13' E 009°06'1 3.0
2017-Apr-28 06:00N 39°11' E 009°07'918.1
2017-Apr-28 05:30N 39°06' E 009°16'1020.7
2017-Apr-28 05:00N 39°00' E 009°28'47 1.4
2017-Apr-26 20:33N 39°18' E 010°23'120.7
2017-Apr-26 20:30N 39°18' E 010°22'1221.1
2017-Apr-26 19:56N 39°13' E 010°08'921.3
2017-Apr-26 19:30N 39°08' E 009°58'1121.6
2017-Apr-26 19:00N 39°04' E 009°45'1121.3
2017-Apr-26 18:28N 38°58' E 009°33'1121.8
2017-Apr-26 17:59N 39°04' E 009°20'1021.7
2017-Apr-26 17:30N 39°09' E 009°09'4 8.0
2017-Apr-26 17:00N 39°13' E 009°06'0 0.0
2017-Apr-26 16:30N 39°13' E 009°06'0 0.0
2017-Apr-26 16:00N 39°13' E 009°06'0 0.0
2017-Apr-26 15:30N 39°13' E 009°06'0 0.0
2017-Apr-26 15:00N 39°13' E 009°06'0 0.0
2017-Apr-26 14:00N 39°13' E 009°06'0 0.0
2017-Apr-26 13:30N 39°13' E 009°06'0 0.0
2017-Apr-26 13:00N 39°13' E 009°06'0 0.0
2017-Apr-26 12:30N 39°13' E 009°06'0 0.0
2017-Apr-26 12:00N 39°13' E 009°06'0 0.0
2017-Apr-26 11:27N 39°13' E 009°06'0 0.0
2017-Apr-26 11:00N 39°13' E 009°06'0 0.0
2017-Apr-26 10:30N 39°13' E 009°06'0 0.0
2017-Apr-26 10:00N 39°13' E 009°06'0 0.0
2017-Apr-26 09:30N 39°13' E 009°06'0 0.0
2017-Apr-26 09:00N 39°13' E 009°06'0 0.0
2017-Apr-26 08:30N 39°13' E 009°06'0 0.0
2017-Apr-26 08:00N 39°13' E 009°06'0 0.0
2017-Apr-26 07:30N 39°13' E 009°06'0 0.0
2017-Apr-26 07:00N 39°13' E 009°06'0 0.0
2017-Apr-26 06:30N 39°13' E 009°06'2 3.1
2017-Apr-26 06:00N 39°11' E 009°07'1019.0
2017-Apr-26 05:30N 39°06' E 009°17'1121.4
2017-Apr-26 04:59N 38°60' E 009°29'1519.8
2017-Apr-26 04:14N 39°04' E 009°47'18421.3
2017-Apr-25 19:37N 40°24' E 013°22'421.8
2017-Apr-25 19:26N 40°25' E 013°27'921.8
2017-Apr-25 19:00N 40°29' E 013°38'1121.8
2017-Apr-25 18:30N 40°34' E 013°51'2121.6
2017-Apr-25 17:31N 40°45' E 014°15'021.3
2017-Apr-25 17:30N 40°46' E 014°15'146 7.8
2017-Apr-24 22:50N 39°41' E 011°24'921.5
2017-Apr-24 22:26N 39°37' E 011°14'7621.6
2017-Apr-24 18:56N 39°04' E 009°46'1121.8
2017-Apr-24 18:27N 38°59' E 009°34'1021.0
2017-Apr-24 17:59N 39°03' E 009°22'1122.0
2017-Apr-24 17:29N 39°08' E 009°11'510.9
2017-Apr-24 17:00N 39°13' E 009°06'0 0.0
2017-Apr-24 16:29N 39°13' E 009°06'0 0.0
2017-Apr-24 15:59N 39°13' E 009°06'0 0.0
2017-Apr-24 15:29N 39°13' E 009°06'0 0.0
2017-Apr-24 14:59N 39°13' E 009°06'0 0.0
2017-Apr-24 14:29N 39°13' E 009°06'0 0.0
2017-Apr-24 13:29N 39°13' E 009°06'0 0.0
2017-Apr-24 12:59N 39°13' E 009°06'0 0.0
2017-Apr-24 12:29N 39°13' E 009°06'0 0.0
2017-Apr-24 11:59N 39°13' E 009°06'0 0.0
2017-Apr-24 11:29N 39°13' E 009°06'0 0.0
2017-Apr-24 10:59N 39°13' E 009°06'0 0.0
2017-Apr-24 10:29N 39°13' E 009°06'0 0.0
2017-Apr-24 09:59N 39°13' E 009°06'0 0.0
2017-Apr-24 09:29N 39°13' E 009°06'0 0.0
2017-Apr-24 08:59N 39°13' E 009°06'0 0.0
2017-Apr-24 08:29N 39°13' E 009°06'0 0.0
2017-Apr-24 07:59N 39°13' E 009°06'0 0.0
2017-Apr-24 07:29N 39°13' E 009°06'0 0.0
2017-Apr-24 06:59N 39°13' E 009°06'0 0.0
2017-Apr-24 06:29N 39°13' E 009°06'0 0.0
2017-Apr-24 05:59N 39°13' E 009°06'0 0.0
2017-Apr-24 05:29N 39°13' E 009°06'0 0.0
2017-Apr-24 04:59N 39°13' E 009°06'0 0.0
2017-Apr-24 04:29N 39°13' E 009°06'0 0.0
2017-Apr-24 03:59N 39°13' E 009°06'0 0.0
2017-Apr-24 03:29N 39°13' E 009°06'0 0.0
2017-Apr-24 02:59N 39°13' E 009°06'0 0.0
2017-Apr-24 02:29N 39°13' E 009°06'0 0.0
2017-Apr-24 01:59N 39°13' E 009°06'0 0.0
2017-Apr-24 01:29N 39°13' E 009°06'0 0.0
2017-Apr-24 00:59N 39°13' E 009°06'0 0.0
2017-Apr-24 00:29N 39°13' E 009°06'0 0.0
2017-Apr-23 23:59N 39°13' E 009°06'0 0.0
2017-Apr-23 23:29N 39°13' E 009°06'0 0.0
2017-Apr-23 22:59N 39°13' E 009°06'0 0.0
2017-Apr-23 22:29N 39°13' E 009°06'0 0.0
2017-Apr-23 21:59N 39°13' E 009°06'0 0.0
2017-Apr-23 21:29N 39°13' E 009°06'0 0.0
2017-Apr-23 20:59N 39°13' E 009°06'0 0.0
2017-Apr-23 20:29N 39°13' E 009°06'0 0.0
2017-Apr-23 19:59N 39°13' E 009°06'0 0.0
2017-Apr-23 19:29N 39°13' E 009°06'0 0.0
2017-Apr-23 18:59N 39°13' E 009°06'0 0.0
2017-Apr-23 18:29N 39°13' E 009°06'0 0.0
2017-Apr-23 17:59N 39°13' E 009°06'0 0.0
2017-Apr-23 17:29N 39°13' E 009°06'0 0.0
2017-Apr-23 16:59N 39°13' E 009°06'0 0.0
2017-Apr-23 16:29N 39°13' E 009°06'0 0.0
2017-Apr-23 15:59N 39°13' E 009°06'0 0.0
2017-Apr-23 15:29N 39°13' E 009°06'0 0.0
2017-Apr-23 14:59N 39°13' E 009°06'0 0.0
2017-Apr-23 13:59N 39°13' E 009°06'0 0.0
2017-Apr-23 13:29N 39°13' E 009°06'0 0.0
2017-Apr-23 12:59N 39°13' E 009°06'0 0.0
2017-Apr-23 12:29N 39°13' E 009°06'0 0.0
2017-Apr-23 11:59N 39°13' E 009°06'0 0.0
2017-Apr-23 11:29N 39°13' E 009°06'0 0.0
2017-Apr-23 10:59N 39°13' E 009°06'0 0.0
2017-Apr-23 10:26N 39°13' E 009°06'0 0.0
2017-Apr-23 09:59N 39°13' E 009°06'0 0.0
2017-Apr-23 09:29N 39°13' E 009°06'0 0.0
2017-Apr-23 08:59N 39°13' E 009°06'0 0.0
2017-Apr-23 08:29N 39°13' E 009°06'0 0.0
2017-Apr-23 07:59N 39°13' E 009°06'0 0.0
2017-Apr-23 07:29N 39°13' E 009°06'0 0.0
2017-Apr-23 06:59N 39°13' E 009°06'0 0.0
2017-Apr-23 06:29N 39°13' E 009°06'0 0.0
2017-Apr-23 05:59N 39°13' E 009°06'0 0.0
2017-Apr-23 05:29N 39°13' E 009°06'4 7.7
2017-Apr-23 05:00N 39°09' E 009°09'1019.0
2017-Apr-23 04:30N 39°04' E 009°19'918.8
2017-Apr-23 04:00N 38°59' E 009°30'1019.0
2017-Apr-23 03:29N 38°57' E 009°42'14519.5
2017-Apr-22 20:03N 38°24' E 012°42'119.6
2017-Apr-22 20:00N 38°24' E 012°44'1019.7
2017-Apr-22 19:30N 38°22' E 012°56'1019.6
2017-Apr-22 19:01N 38°19' E 013°08'1020.2
2017-Apr-22 18:31N 38°17' E 013°20'918.2
2017-Apr-22 18:01N 38°09' E 013°26'3 6.2
2017-Apr-22 17:29N 38°08' E 013°22'0 0.0
2017-Apr-22 16:59N 38°08' E 013°22'0 0.0
2017-Apr-22 16:29N 38°08' E 013°22'0 0.0
2017-Apr-22 15:59N 38°08' E 013°22'0 0.0
2017-Apr-22 15:29N 38°08' E 013°22'0 0.0
2017-Apr-22 14:59N 38°08' E 013°22'0 0.0
2017-Apr-22 13:59N 38°08' E 013°22'0 0.0
2017-Apr-22 13:29N 38°08' E 013°22'0 0.0
2017-Apr-22 12:59N 38°08' E 013°22'0 0.0
2017-Apr-22 12:29N 38°08' E 013°22'0 0.0
2017-Apr-22 11:59N 38°08' E 013°22'0 0.0
2017-Apr-22 11:29N 38°08' E 013°22'0 0.0
2017-Apr-22 10:59N 38°08' E 013°22'0 0.0
2017-Apr-22 10:29N 38°08' E 013°22'0 0.0
2017-Apr-22 09:59N 38°08' E 013°22'0 0.0
2017-Apr-22 09:29N 38°08' E 013°22'0 0.0
2017-Apr-22 08:59N 38°08' E 013°22'0 0.0
2017-Apr-22 08:29N 38°08' E 013°22'0 0.0
2017-Apr-22 07:59N 38°08' E 013°22'0 0.0
2017-Apr-22 07:29N 38°08' E 013°22'0 0.0
2017-Apr-22 06:59N 38°08' E 013°22'0 0.0
2017-Apr-22 06:29N 38°08' E 013°22'0 0.0
2017-Apr-22 05:59N 38°08' E 013°22'0 0.0
2017-Apr-22 05:30N 38°08' E 013°22'1 2.1
2017-Apr-22 05:00N 38°07' E 013°23'815.7
2017-Apr-22 04:31N 38°15' E 013°23'918.9
2017-Apr-22 04:01N 38°19' E 013°12'1019.4
2017-Apr-22 03:31N 38°21' E 012°60'1019.3
2017-Apr-22 03:00N 38°23' E 012°48'15319.3
2017-Apr-21 19:06N 38°58' E 009°36'220.5
2017-Apr-21 19:00N 38°58' E 009°34'1120.2
2017-Apr-21 18:27N 39°03' E 009°21'920.8
2017-Apr-21 18:00N 39°08' E 009°11'611.2
2017-Apr-21 17:30N 39°13' E 009°06'0 0.0
2017-Apr-21 16:59N 39°13' E 009°06'0 0.0
2017-Apr-21 16:29N 39°13' E 009°06'0 0.0
2017-Apr-21 15:59N 39°13' E 009°06'0 0.0
2017-Apr-21 15:29N 39°13' E 009°06'0 0.0
2017-Apr-21 14:59N 39°13' E 009°06'0 0.0
2017-Apr-21 14:29N 39°13' E 009°06'0 0.0
2017-Apr-21 13:29N 39°13' E 009°06'0 0.0
2017-Apr-21 12:59N 39°13' E 009°06'0 0.0
2017-Apr-21 12:29N 39°13' E 009°06'0 0.0
2017-Apr-21 11:59N 39°13' E 009°06'0 0.0
2017-Apr-21 11:29N 39°13' E 009°06'0 0.0
2017-Apr-21 10:59N 39°13' E 009°06'0 0.0
2017-Apr-21 10:29N 39°13' E 009°06'0 0.0
2017-Apr-21 09:59N 39°13' E 009°06'0 0.0
2017-Apr-21 09:29N 39°13' E 009°06'0 0.0
2017-Apr-21 08:59N 39°13' E 009°06'0 0.0
2017-Apr-21 08:29N 39°13' E 009°06'0 0.0
2017-Apr-21 07:50N 39°13' E 009°06'0 0.0
2017-Apr-21 07:29N 39°13' E 009°06'0 0.0
2017-Apr-21 06:59N 39°13' E 009°06'0 0.0
2017-Apr-21 06:29N 39°13' E 009°06'2 3.2
2017-Apr-21 06:00N 39°11' E 009°07'918.3
2017-Apr-21 05:30N 39°06' E 009°16'1120.7
2017-Apr-21 04:59N 39°00' E 009°28'6 0.2
2017-Apr-19 18:36N 38°59' E 009°36'221.5
2017-Apr-19 18:30N 38°58' E 009°33'1121.6
2017-Apr-19 18:00N 39°03' E 009°21'  

Dump ship's entire track history